Flight Track Log - Related Links

Times and Time Zones

All times are in EDT time to prevent confusion due to time zone crossing. See the SWA3121 flight status page for this flight to view local times or setup timezone preferences in your user account.

Time Position Orientation Groundspeed Altitude Reporting Facility
EDT Latitude Longitude Course Direction KTS MPH feet Rate Location/Type
Tue 08:08:42 PM 28.4000 -81.3000 221° Southwest 156 180 700  Level Orlando TRACON
Tue 08:09:48 PM 28.3667 -81.3333 221° Southwest 222 255 2,700 2,700 Climbing Orlando TRACON
Tue 08:10:42 PM 28.3500 -81.4000 254° West 242 278 6,100 3,065 Climbing Orlando TRACON
Tue 08:12:52 PM 28.3372 -81.5767 265° West 274 315 12,100 3,181 Climbing Jacksonville Center
Tue 08:14:51 PM 28.3744 -81.7647 283° West 302 348 19,300 2,967 Climbing Jacksonville Center
Tue 08:15:52 PM 28.3983 -81.8661 285° West 320 368 21,000 2,150 Climbing Jacksonville Center
Tue 08:16:51 PM 28.4431 -81.9883 293° West 345 397 23,600 2,269 Climbing Jacksonville Center
Tue 08:17:51 PM 28.4814 -82.0825 295° West 371 427 25,500 1,450 Climbing Jacksonville Center
Tue 08:18:51 PM 28.4381 -82.2008 247° West 366 421 26,500 1,450 Climbing Jacksonville Center
Tue 08:19:51 PM 28.3928 -82.3261 248° West 391 450 28,400 1,950 Climbing Jacksonville Center
Tue 08:20:51 PM 28.3494 -82.4561 249° West 424 488 30,400 2,000 Climbing Jacksonville Center
Tue 08:22:39 PM 28.2703 -82.6783 248° West 429 494 34,000 1,964 Climbing Miami Center
Tue 08:23:39 PM 28.2258 -82.7961 247° West 422 486 35,900 1,000 Climbing Miami Center
Tue 08:24:39 PM 28.1831 -82.9186 248° West 422 486 36,000 50 Climbing Miami Center
Tue 08:25:39 PM 28.1408 -83.0339 247° West 417 480 36,000  Level Miami Center
Tue 08:26:39 PM 28.0956 -83.1583 248° West 417 480 36,000 500 Level Miami Center
Tue 08:27:39 PM 28.0550 -83.2761 249° West 417 480 37,000 1,000 Climbing Miami Center
Tue 08:28:39 PM 28.0119 -83.3981 248° West 417 480 38,000 500 Climbing Miami Center
Tue 08:29:39 PM 27.9936 -83.5239 261° West 422 486 38,000  Level Miami Center
Tue 08:31:15 PM 28.0178 -83.7225 278° West 389 448 38,000  Level Jacksonville Center
Tue 08:32:15 PM 28.0461 -83.8472 284° West 401 461 38,000  Level Jacksonville Center
Tue 08:33:16 PM 28.0683 -83.9722 281° West 406 467 38,000  Level Jacksonville Center
Tue 08:34:15 PM 28.0922 -84.0947 282° West 412 474 38,000  Level Jacksonville Center
Tue 08:35:15 PM 28.1181 -84.2175 283° West 412 474 38,000  Level Jacksonville Center
Tue 08:36:15 PM 28.1397 -84.3400 281° West 412 474 38,000  Level Jacksonville Center
Tue 08:37:15 PM 28.1653 -84.4722 282° West 407 468 38,000  Level Jacksonville Center
Tue 08:38:15 PM 28.1719 -84.6042 273° West 412 474 38,000  Level Jacksonville Center
Tue 08:39:15 PM 28.1831 -84.7150 277° West 398 458 38,000  Level Jacksonville Center
Tue 08:40:15 PM 28.1894 -84.8472 273° West 392 451 38,000  Level Jacksonville Center
Tue 08:41:15 PM 28.2000 -84.9675 276° West 392 451 38,000  Level Jacksonville Center
Tue 08:42:15 PM 28.2106 -85.0878 276° West 397 457 38,000  Level Jacksonville Center
Tue 08:43:15 PM 28.2186 -85.2150 274° West 397 457 38,000  Level Jacksonville Center
Tue 08:44:16 PM 28.2269 -85.3356 275° West 404 465 38,000  Level Jacksonville Center
Tue 08:45:15 PM 28.2347 -85.4653 274° West 404 465 38,000  Level Jacksonville Center
Tue 08:46:15 PM 28.2447 -85.5928 275° West 404 465 38,000  Level Jacksonville Center
Tue 08:47:16 PM 28.2903 -85.7022 295° West 388 447 38,000  Level Jacksonville Center
Tue 08:48:15 PM 28.3464 -85.8147 300° West 405 466 38,000  Level Jacksonville Center
Tue 08:49:16 PM 28.4019 -85.9272 299° West 405 466 38,000  Level Jacksonville Center
Tue 08:50:15 PM 28.4578 -86.0397 299° West 410 472 38,000  Level Jacksonville Center
Tue 08:51:15 PM 28.5133 -86.1503 300° West 405 466 38,000  Level Jacksonville Center
Tue 08:52:15 PM 28.5375 -86.2714 283° West 399 459 38,000  Level Jacksonville Center
Tue 08:53:15 PM 28.5592 -86.3950 281° West 392 451 38,000  Level Jacksonville Center
Tue 08:54:15 PM 28.5808 -86.5189 281° West 397 457 38,000  Level Jacksonville Center
Tue 08:55:15 PM 28.6042 -86.6450 282° West 403 464 38,000  Level Jacksonville Center
Tue 08:56:15 PM 28.6278 -86.7689 282° West 403 464 38,000  Level Jacksonville Center
Tue 08:57:15 PM 28.6492 -86.8878 282° West 398 458 38,000  Level Jacksonville Center
Tue 08:58:15 PM 28.6703 -87.0117 281° West 398 458 38,000  Level Jacksonville Center
Tue 08:59:15 PM 28.6914 -87.1333 281° West 392 451 38,000  Level Jacksonville Center
Tue 09:00:15 PM 28.7144 -87.2550 282° West 392 451 38,000  Level Jacksonville Center
Tue 09:01:15 PM 28.7331 -87.3789 280° West 397 457 38,000  Level Jacksonville Center
Tue 09:02:16 PM 28.7553 -87.5017 282° West 399 459 38,000  Level Houston Center
Tue 09:03:17 PM 28.7775 -87.6272 281° West 403 464 38,000  Level Houston Center
Tue 09:04:18 PM 28.7986 -87.7525 281° West 404 465 38,000  Level Houston Center
Tue 09:05:20 PM 28.8192 -87.8792 281° West 407 468 38,000  Level Houston Center
Tue 09:06:21 PM 28.8406 -88.0039 281° West 402 463 38,000  Level Houston Center
Tue 09:07:23 PM 28.8644 -88.1472 281° West 409 471 38,000  Level Houston Center
Tue 09:08:24 PM 28.8853 -88.2733 281° West 406 467 38,000  Level Houston Center
Tue 09:09:25 PM 28.9056 -88.3994 280° West 406 467 38,000  Level Houston Center
Tue 09:10:26 PM 28.9267 -88.5256 281° West 405 466 38,000  Level Houston Center
Tue 09:11:28 PM 28.9464 -88.6517 280° West 405 466 38,000  Level Houston Center
Tue 09:12:29 PM 28.9675 -88.7792 281° West 407 468 38,000  Level Houston Center
Tue 09:13:30 PM 28.9881 -88.9047 281° West 405 466 38,000  Level Houston Center
Tue 09:14:32 PM 29.0083 -89.0336 280° West 410 472 38,000  Level Houston Center
Tue 09:15:33 PM 29.0278 -89.1611 280° West 408 470 38,000  Level Houston Center
Tue 09:16:34 PM 29.0483 -89.2867 281° West 406 467 38,000  Level Houston Center
Tue 09:17:35 PM 29.0681 -89.4128 280° West 404 465 38,000  Level Houston Center
Tue 09:18:36 PM 29.0925 -89.5664 280° West 409 471 38,000  Level Houston Center
Tue 09:19:38 PM 29.1125 -89.6967 280° West 412 474 38,000  Level Houston Center
Tue 09:20:39 PM 29.1319 -89.8261 280° West 414 476 38,000  Level Houston Center
Tue 09:21:40 PM 29.1519 -89.9567 280° West 416 479 38,000  Level Houston Center
Tue 09:22:41 PM 29.1722 -90.0883 280° West 421 484 38,000  Level Houston Center
Tue 09:23:42 PM 29.1786 -90.2214 273° West 418 481 38,000  Level Houston Center
Tue 09:24:43 PM 29.1839 -90.3528 273° West 415 478 38,000  Level Houston Center
Tue 09:25:44 PM 29.1878 -90.4836 272° West 414 476 38,000  Level Houston Center
Tue 09:26:46 PM 29.1917 -90.6150 272° West 413 475 38,000  Level Houston Center
Tue 09:27:47 PM 29.1961 -90.7472 272° West 415 478 38,000  Level Houston Center
Tue 09:28:48 PM 29.2017 -90.8789 273° West 416 479 38,000  Level Houston Center
Tue 09:29:49 PM 29.2058 -91.0111 272° West 418 481 38,000  Level Houston Center
Tue 09:30:50 PM 29.2108 -91.1692 272° West 417 480 38,000  Level Houston Center
Tue 09:31:51 PM 29.2142 -91.3014 272° West 419 482 38,000  Level Houston Center
Tue 09:32:52 PM 29.2189 -91.4328 272° West 416 479 38,000  Level Houston Center
Tue 09:33:53 PM 29.2214 -91.5664 271° West 420 483 38,000  Level Houston Center
Tue 09:34:55 PM 29.2247 -91.6997 272° West 423 487 38,000  Level Houston Center
Tue 09:35:56 PM 29.2281 -91.8333 272° West 427 491 38,000  Level Houston Center
Tue 09:36:57 PM 29.2314 -91.9683 272° West 427 491 38,000  Level Houston Center
Tue 09:37:58 PM 29.2350 -92.1033 272° West 427 491 38,000  Level Houston Center
Tue 09:38:59 PM 29.2378 -92.2392 271° West 427 491 38,000  Level Houston Center
Tue 09:40:00 PM 29.2411 -92.3744 272° West 426 490 38,000  Level Houston Center
Tue 09:41:01 PM 29.2433 -92.5353 271° West 422 486 38,000  Level Houston Center
Tue 09:42:03 PM 29.2467 -92.6686 272° West 419 482 38,000  Level Houston Center
Tue 09:43:04 PM 29.2494 -92.8031 271° West 423 487 38,000  Level Houston Center
Tue 09:44:05 PM 29.2522 -92.9361 271° West 420 483 38,000 -1,033 Level Houston Center
Tue 09:45:06 PM 29.2525 -93.0697 270° West 419 482 35,900 -2,459 Descending Houston Center
Tue 09:46:07 PM 29.2550 -93.2025 271° West 418 481 33,000 -2,656 Descending Houston Center
Tue 09:47:08 PM 29.2572 -93.3369 271° West 420 483 30,500 -2,262 Descending Houston Center
Tue 09:48:09 PM 29.2597 -93.4686 271° West 418 481 28,400 -2,016 Descending Houston Center
Tue 09:49:10 PM 29.2608 -93.5942 271° West 406 467 26,400 -2,000 Descending Houston Center
Tue 09:50:12 PM 29.2619 -93.7172 271° West 397 457 24,300 -2,000 Descending Houston Center
Tue 09:51:13 PM 29.2633 -93.8394 271° West 391 450 22,300 -1,918 Descending Houston Center
Tue 09:52:14 PM 29.2647 -93.9514 271° West 377 434 20,400 -1,869 Descending Houston Center
Tue 09:53:15 PM 29.2667 -94.0639 271° West 364 419 18,500 -2,115 Descending Houston Center
Tue 09:54:16 PM 29.2669 -94.1969 270° West 355 409 16,100 -2,045 Descending Houston Center
Tue 09:55:27 PM 29.2650 -94.3225 269° West 333 383 14,000 -1,770 Descending Houston Center
Tue 09:56:18 PM 29.2669 -94.4061 272° West 332 382 12,500 -1,071 Descending Houston Center
Tue 09:57:19 PM 29.2753 -94.5014 276° West 308 354 12,000 -836 Descending Houston Center
Tue 09:58:20 PM 29.3153 -94.5822 300° West 292 336 10,800 -1,279 Descending Houston Center
Tue 09:59:21 PM 29.3553 -94.6639 299° West 293 337 9,400 -1,344 Descending Houston Center
Tue 10:00:25 PM 29.4003 -94.7561 299° West 284 327 8,000 -689 Descending Houston Center
Tue 10:01:23 PM 29.4331 -94.8206 300° West 282 325 8,000  Level Houston Center
Tue 10:02:24 PM 29.4714 -94.8983 300° West 281 323 8,000  Level Houston Center
Tue 10:03:25 PM 29.5097 -94.9775 299° West 282 325 8,000 -254 Level Houston Center
Tue 10:04:22 PM 29.5514 -95.0639 299° West 282 325 7,500 -984 Descending Houston Center
Tue 10:05:27 PM 29.5861 -95.1356 299° West 284 327 6,000 -714 Descending Houston Center
Tue 10:06:28 PM 29.6067 -95.2211 285° West 265 305 6,000  Level Houston Center
Tue 10:07:29 PM 29.6169 -95.3033 278° West 259 298 6,000 -356 Level Houston Center
Tue 10:08:26 PM 29.6433 -95.3747 293° West 221 254 5,300 -1,082 Descending Houston Center
Tue 10:09:31 PM 29.6878 -95.4181 320° Northwest 225 259 3,800 -1,489 Descending Houston Center
Tue 10:10:39 PM 29.7044 -95.3553 73° East 156 180 2,000 -1,141 Descending Houston Center
Tue 10:12:35 PM 29.6544 -95.2917 132° Southeast 132 152 300 -879 Descending Houston Center

Login

Don't have an account? Register now (free) for customized features, flight alerts, and more!